Time;durP1;ratioP1;P1;durP2;ratioP2;P2;SDS_P1;SDS_P2;PMS_P1;PMS_P2;Temp;Humidity;BMP_temperature;BMP_pressure;BME280_temperature;BME280_humidity;BME280_pressure;Samples;Min_cycle;Max_cycle;Signal;HPM_P1;HPM_P2
2023/01/17 00:00:16;;;;;;;10.07;7.17;;;;;;;;;;5114346;28;20232;-77
2023/01/17 00:02:43;;;;;;;9.47;7.17;;;;;;;;;;5113439;28;20229;-76
2023/01/17 00:10:57;;;;;;;10.33;6.47;;;;;;;;;;5050859;28;20214;-76
2023/01/17 00:13:24;;;;;;;22.40;11.27;;;;;;;;;;5050966;28;20225;-76
2023/01/17 00:15:52;;;;;;;37.03;16.93;;;;;;;;;;5051231;28;20192;-77
2023/01/17 00:18:19;;;;;;;78.43;37.87;;;;;;;;;;5051032;28;20378;-77
2023/01/17 00:26:18;;;;;;;65.03;30.13;;;;;;;;;;5050706;28;20318;-75
2023/01/17 01:35:45;;;;;;;7.73;4.90;;;;;;;;;;5112913;28;20608;-76
2023/01/17 01:38:13;;;;;;;6.47;4.60;;;;;;;;;;5112602;28;20232;-76
2023/01/17 01:40:44;;;;;;;7.37;5.13;;;;;;;;;;5094354;28;20908;-76
2023/01/17 01:43:14;;;;;;;6.93;4.87;;;;;;;;;;5112174;28;20243;-76
2023/01/17 01:45:41;;;;;;;7.20;5.10;;;;;;;;;;5112726;28;20224;-76
2023/01/17 01:48:22;;;;;;;10.17;5.30;;;;;;;;;;5112269;28;20321;-76
2023/01/17 01:50:51;;;;;;;9.07;5.30;;;;;;;;;;5112194;28;20233;-74
2023/01/17 01:53:19;;;;;;;7.20;5.00;;;;;;;;;;5112715;28;20594;-76
2023/01/17 01:55:48;;;;;;;7.70;5.03;;;;;;;;;;5112268;28;20198;-76
2023/01/17 01:58:19;;;;;;;8.77;5.60;;;;;;;;;;5111634;28;20225;-76
2023/01/17 02:00:46;;;;;;;6.23;5.27;;;;;;;;;;5112202;28;20221;-76
2023/01/17 02:08:53;;;;;;;8.37;5.43;;;;;;;;;;5193141;22;20241;-81
2023/01/17 02:11:21;;;;;;;8.87;5.40;;;;;;;;;;5082406;28;20215;-79
2023/01/17 02:13:49;;;;;;;8.97;5.27;;;;;;;;;;5084912;28;20231;-81
2023/01/17 02:16:21;;;;;;;7.93;5.77;;;;;;;;;;5070762;28;20226;-80
2023/01/17 02:18:53;;;;;;;9.40;5.40;;;;;;;;;;5070124;28;20298;-80
2023/01/17 02:21:25;;;;;;;9.77;6.07;;;;;;;;;;5070955;28;20206;-80
2023/01/17 02:24:10;;;;;;;10.43;6.00;;;;;;;;;;5070749;28;20274;-80
2023/01/17 02:26:51;;;;;;;7.60;5.90;;;;;;;;;;5084806;28;20293;-80
2023/01/17 02:29:33;;;;;;;11.47;6.10;;;;;;;;;;5091265;28;20218;-79
2023/01/17 02:32:05;;;;;;;7.77;5.50;;;;;;;;;;5087374;28;20281;-80
2023/01/17 02:34:36;;;;;;;10.13;6.53;;;;;;;;;;5091309;28;20225;-80
2023/01/17 02:37:06;;;;;;;8.67;5.73;;;;;;;;;;5090862;28;20229;-80
2023/01/17 02:39:38;;;;;;;7.93;5.80;;;;;;;;;;5090685;28;20681;-80
2023/01/17 02:42:06;;;;;;;8.43;5.80;;;;;;;;;;5091726;28;20216;-80
2023/01/17 02:44:40;;;;;;;9.63;5.37;;;;;;;;;;5091021;28;20285;-79
2023/01/17 02:47:19;;;;;;;10.47;5.70;;;;;;;;;;5090871;28;20226;-80
2023/01/17 02:49:46;;;;;;;7.40;5.47;;;;;;;;;;5090914;28;20288;-80
2023/01/17 02:52:21;;;;;;;6.83;5.70;;;;;;;;;;5091451;28;20302;-79
2023/01/17 02:54:55;;;;;;;7.73;6.00;;;;;;;;;;5090549;28;20240;-80
2023/01/17 02:57:31;;;;;;;8.23;5.93;;;;;;;;;;5091335;28;20221;-80
2023/01/17 03:00:01;;;;;;;8.10;6.00;;;;;;;;;;5090713;28;20218;-80
2023/01/17 03:02:33;;;;;;;9.97;6.33;;;;;;;;;;5091109;28;20242;-80
2023/01/17 03:05:02;;;;;;;12.13;7.20;;;;;;;;;;5090887;28;20227;-80
2023/01/17 03:07:30;;;;;;;8.37;6.03;;;;;;;;;;5091047;28;20325;-80
2023/01/17 03:09:59;;;;;;;7.77;6.30;;;;;;;;;;5086602;28;20270;-79
2023/01/17 03:12:27;;;;;;;8.97;6.80;;;;;;;;;;5070402;28;20195;-80
2023/01/17 03:14:55;;;;;;;10.50;6.70;;;;;;;;;;5070684;28;20228;-80
2023/01/17 03:17:22;;;;;;;9.83;6.90;;;;;;;;;;5070356;28;20290;-80
2023/01/17 03:19:51;;;;;;;9.10;7.37;;;;;;;;;;5070853;28;20670;-79
2023/01/17 03:22:18;;;;;;;9.50;7.30;;;;;;;;;;5070818;28;20294;-80
2023/01/17 03:24:45;;;;;;;11.40;7.37;;;;;;;;;;5070371;28;20202;-80
2023/01/17 03:27:12;;;;;;;12.60;7.73;;;;;;;;;;5070756;28;20227;-81
2023/01/17 03:29:39;;;;;;;12.03;8.03;;;;;;;;;;5072876;28;20223;-80
2023/01/17 03:32:07;;;;;;;14.13;8.27;;;;;;;;;;5074488;28;20199;-80
2023/01/17 03:34:34;;;;;;;11.83;8.20;;;;;;;;;;5074140;28;20298;-81
2023/01/17 03:37:02;;;;;;;12.40;8.20;;;;;;;;;;5073869;28;20667;-80
2023/01/17 03:39:30;;;;;;;10.37;8.00;;;;;;;;;;5073465;28;20195;-81
2023/01/17 03:41:57;;;;;;;11.83;8.63;;;;;;;;;;5073953;28;20200;-80
2023/01/17 03:44:24;;;;;;;12.90;8.17;;;;;;;;;;5080248;28;20276;-79
2023/01/17 03:46:51;;;;;;;13.07;8.23;;;;;;;;;;5094274;28;20277;-80
2023/01/17 03:49:19;;;;;;;16.10;9.00;;;;;;;;;;5094300;28;20289;-81
2023/01/17 03:51:46;;;;;;;13.13;8.80;;;;;;;;;;5094024;28;20292;-80
2023/01/17 03:54:14;;;;;;;13.43;8.77;;;;;;;;;;5094073;28;20293;-80
2023/01/17 03:56:41;;;;;;;14.47;9.07;;;;;;;;;;5094145;28;20229;-81
2023/01/17 03:59:09;;;;;;;11.97;8.33;;;;;;;;;;5093788;28;20289;-80
2023/01/17 04:01:36;;;;;;;12.23;8.70;;;;;;;;;;5094140;28;20191;-81
2023/01/17 04:04:04;;;;;;;13.33;8.60;;;;;;;;;;5094155;28;20227;-81
2023/01/17 04:06:31;;;;;;;11.97;8.57;;;;;;;;;;5093195;28;20223;-80
2023/01/17 04:08:58;;;;;;;14.50;8.93;;;;;;;;;;5093803;28;20879;-80
2023/01/17 04:11:26;;;;;;;14.17;9.10;;;;;;;;;;5094049;28;20290;-80
2023/01/17 04:13:54;;;;;;;14.07;8.87;;;;;;;;;;5093463;28;20226;-80
2023/01/17 04:16:22;;;;;;;11.97;8.67;;;;;;;;;;5093471;28;20224;-80
2023/01/17 04:18:49;;;;;;;11.87;8.23;;;;;;;;;;5093281;28;20285;-80
2023/01/17 04:21:16;;;;;;;12.13;8.27;;;;;;;;;;5093478;28;20195;-81
2023/01/17 04:23:44;;;;;;;12.17;8.10;;;;;;;;;;5094021;28;20292;-81
2023/01/17 04:26:12;;;;;;;11.63;8.03;;;;;;;;;;5093543;28;20294;-80
2023/01/17 04:28:41;;;;;;;11.77;8.03;;;;;;;;;;5093039;28;20326;-81
2023/01/17 04:31:08;;;;;;;9.90;7.60;;;;;;;;;;5093412;28;20222;-81
2023/01/17 04:33:35;;;;;;;11.70;7.33;;;;;;;;;;5093646;28;20656;-81
2023/01/17 04:36:02;;;;;;;11.20;7.60;;;;;;;;;;5093069;28;20200;-81
2023/01/17 04:38:30;;;;;;;12.30;7.50;;;;;;;;;;5093306;28;20231;-80
2023/01/17 04:40:57;;;;;;;11.10;7.53;;;;;;;;;;5092020;28;20438;-81
2023/01/17 04:43:24;;;;;;;11.07;7.50;;;;;;;;;;5093574;28;20237;-80
2023/01/17 04:45:56;;;;;;;14.73;7.63;;;;;;;;;;5093088;28;20285;-80
2023/01/17 04:48:23;;;;;;;11.87;7.97;;;;;;;;;;5092604;28;20230;-80
2023/01/17 04:50:50;;;;;;;12.07;7.30;;;;;;;;;;5092628;28;20738;-80
2023/01/17 04:53:17;;;;;;;10.87;7.57;;;;;;;;;;5093345;28;20242;-81
2023/01/17 04:55:45;;;;;;;10.67;7.37;;;;;;;;;;5092639;28;20679;-81
2023/01/17 04:58:13;;;;;;;13.27;7.97;;;;;;;;;;5093070;28;20195;-80
2023/01/17 05:00:40;;;;;;;12.43;7.60;;;;;;;;;;5092454;28;20234;-80
2023/01/17 05:03:08;;;;;;;11.50;7.10;;;;;;;;;;5092774;28;20282;-80
2023/01/17 05:05:35;;;;;;;12.40;7.73;;;;;;;;;;5092195;28;20291;-80
2023/01/17 05:08:03;;;;;;;10.03;7.00;;;;;;;;;;5092951;28;20331;-80
2023/01/17 05:10:30;;;;;;;8.17;6.90;;;;;;;;;;5092481;28;20249;-80
2023/01/17 05:12:58;;;;;;;9.13;6.90;;;;;;;;;;5092536;28;20225;-80
2023/01/17 05:15:25;;;;;;;9.93;6.53;;;;;;;;;;5092685;28;20200;-81
2023/01/17 05:17:53;;;;;;;10.80;6.73;;;;;;;;;;5092274;28;20665;-80
2023/01/17 05:20:23;;;;;;;9.70;6.10;;;;;;;;;;5091827;28;20285;-80
2023/01/17 05:22:54;;;;;;;8.53;5.87;;;;;;;;;;5092573;28;20295;-80
2023/01/17 05:25:21;;;;;;;10.80;5.80;;;;;;;;;;5092599;28;20195;-80
2023/01/17 05:27:49;;;;;;;8.20;5.40;;;;;;;;;;5091888;28;20261;-81
2023/01/17 05:30:17;;;;;;;8.47;5.40;;;;;;;;;;5092293;28;20607;-80
2023/01/17 05:32:45;;;;;;;8.57;6.03;;;;;;;;;;5092182;28;20292;-79
2023/01/17 05:35:12;;;;;;;8.97;5.70;;;;;;;;;;5091461;28;20761;-80
2023/01/17 05:37:47;;;;;;;9.83;6.30;;;;;;;;;;5092383;28;20284;-80
2023/01/17 05:40:15;;;;;;;9.43;6.10;;;;;;;;;;5091809;28;20199;-80
2023/01/17 05:42:45;;;;;;;9.20;5.93;;;;;;;;;;5092080;28;20208;-80
2023/01/17 05:45:15;;;;;;;10.43;6.40;;;;;;;;;;5092133;28;20227;-80
2023/01/17 05:47:42;;;;;;;9.13;5.90;;;;;;;;;;5091512;28;20677;-80
2023/01/17 05:50:10;;;;;;;7.57;5.50;;;;;;;;;;5092151;28;20227;-80
2023/01/17 05:52:38;;;;;;;10.00;5.33;;;;;;;;;;5089113;28;20630;-84
2023/01/17 05:55:07;;;;;;;6.97;5.27;;;;;;;;;;5092180;28;20229;-83
2023/01/17 05:57:34;;;;;;;8.60;5.60;;;;;;;;;;5092172;28;20205;-82
2023/01/17 06:00:01;;;;;;;10.20;6.60;;;;;;;;;;5092247;28;20237;-83
2023/01/17 06:02:29;;;;;;;9.40;5.93;;;;;;;;;;5083696;28;20331;-85
2023/01/17 06:04:56;;;;;;;6.63;5.30;;;;;;;;;;5071957;28;20286;-84
2023/01/17 06:07:23;;;;;;;6.33;4.27;;;;;;;;;;5071390;28;20226;-83
2023/01/17 06:09:50;;;;;;;4.60;4.10;;;;;;;;;;5070954;28;20336;-83
2023/01/17 06:12:19;;;;;;;5.13;3.90;;;;;;;;;;5071980;28;20249;-83
2023/01/17 06:14:46;;;;;;;6.13;3.83;;;;;;;;;;5071630;28;20646;-84
2023/01/17 06:17:13;;;;;;;5.43;3.97;;;;;;;;;;5071036;28;20241;-83
2023/01/17 06:19:40;;;;;;;7.07;4.13;;;;;;;;;;5071292;28;20235;-83
2023/01/17 06:22:08;;;;;;;8.10;4.77;;;;;;;;;;5071512;28;20247;-84
2023/01/17 06:24:35;;;;;;;5.50;4.17;;;;;;;;;;5071374;28;20231;-82
2023/01/17 06:27:02;;;;;;;4.43;3.33;;;;;;;;;;5071183;28;20646;-84
2023/01/17 06:29:31;;;;;;;6.60;3.63;;;;;;;;;;5071340;28;20313;-83
2023/01/17 06:31:58;;;;;;;3.30;2.77;;;;;;;;;;5070804;28;20269;-82
2023/01/17 06:34:25;;;;;;;4.83;3.47;;;;;;;;;;5071668;28;20232;-82
2023/01/17 06:36:52;;;;;;;4.37;3.53;;;;;;;;;;5071282;28;20236;-81
2023/01/17 06:39:19;;;;;;;5.30;4.20;;;;;;;;;;5070640;28;20239;-84
2023/01/17 06:41:46;;;;;;;5.33;4.10;;;;;;;;;;5090257;28;20290;-83
2023/01/17 06:44:14;;;;;;;6.20;4.63;;;;;;;;;;5091859;28;20651;-85
2023/01/17 06:46:43;;;;;;;5.10;4.23;;;;;;;;;;5090669;28;20225;-83
2023/01/17 06:49:11;;;;;;;5.97;4.57;;;;;;;;;;5091360;28;20246;-82
2023/01/17 06:51:38;;;;;;;4.90;4.40;;;;;;;;;;5091817;28;20287;-83
2023/01/17 06:54:05;;;;;;;6.03;5.10;;;;;;;;;;5091777;28;20235;-83
2023/01/17 06:56:33;;;;;;;6.17;4.80;;;;;;;;;;5090958;28;20281;-82
2023/01/17 06:59:00;;;;;;;6.90;4.57;;;;;;;;;;5091464;28;20290;-84
2023/01/17 07:01:27;;;;;;;6.77;4.07;;;;;;;;;;5091050;28;20695;-83
2023/01/17 07:03:56;;;;;;;6.93;4.77;;;;;;;;;;5092749;28;20651;-83
2023/01/17 07:06:27;;;;;;;6.87;4.40;;;;;;;;;;5095675;28;20229;-83
2023/01/17 07:08:55;;;;;;;5.90;4.30;;;;;;;;;;5095411;28;20234;-82
2023/01/17 07:11:22;;;;;;;6.70;4.67;;;;;;;;;;5095601;28;20197;-83
2023/01/17 07:13:49;;;;;;;6.13;4.83;;;;;;;;;;5095365;28;20659;-83
2023/01/17 07:16:17;;;;;;;6.77;5.10;;;;;;;;;;5095159;28;20287;-85
2023/01/17 07:18:44;;;;;;;7.80;5.70;;;;;;;;;;5095296;28;20278;-83
2023/01/17 07:21:14;;;;;;;6.80;5.13;;;;;;;;;;5095409;28;20635;-84
2023/01/17 07:23:42;;;;;;;5.83;4.93;;;;;;;;;;5095424;28;20283;-84
2023/01/17 07:26:09;;;;;;;6.97;5.10;;;;;;;;;;5094917;28;20290;-84
2023/01/17 07:28:36;;;;;;;8.17;5.57;;;;;;;;;;5094934;28;20675;-85
2023/01/17 07:31:06;;;;;;;7.73;5.20;;;;;;;;;;5095019;28;20220;-84
2023/01/17 07:33:34;;;;;;;6.83;4.90;;;;;;;;;;5095528;28;20188;-84
2023/01/17 07:36:03;;;;;;;8.60;4.93;;;;;;;;;;5095333;28;20285;-84
2023/01/17 07:38:34;;;;;;;7.10;5.00;;;;;;;;;;5095367;28;20203;-84
2023/01/17 07:41:01;;;;;;;6.57;5.00;;;;;;;;;;5095143;28;20191;-84
2023/01/17 07:43:28;;;;;;;6.90;4.97;;;;;;;;;;5095020;28;20236;-85
2023/01/17 07:45:56;;;;;;;6.33;4.83;;;;;;;;;;5094470;28;20233;-85
2023/01/17 07:48:24;;;;;;;5.97;4.70;;;;;;;;;;5094965;28;20191;-84
2023/01/17 07:50:54;;;;;;;6.67;4.77;;;;;;;;;;5095104;28;20204;-85
2023/01/17 07:53:22;;;;;;;6.47;5.33;;;;;;;;;;5089256;28;20200;-85
2023/01/17 07:55:51;;;;;;;7.57;4.90;;;;;;;;;;5080672;28;20222;-85
2023/01/17 07:58:18;;;;;;;7.20;6.07;;;;;;;;;;5074150;28;20639;-85
2023/01/17 08:00:46;;;;;;;7.60;6.60;;;;;;;;;;5074434;28;20284;-85
2023/01/17 08:03:14;;;;;;;6.37;5.33;;;;;;;;;;5074131;28;20695;-85
2023/01/17 08:05:42;;;;;;;6.50;5.33;;;;;;;;;;5073948;28;20250;-85
2023/01/17 08:08:10;;;;;;;5.93;5.20;;;;;;;;;;5074200;28;20258;-85
2023/01/17 08:10:37;;;;;;;6.87;5.60;;;;;;;;;;5077030;28;20268;-84
2023/01/17 08:13:05;;;;;;;6.13;4.67;;;;;;;;;;5093844;28;20682;-85
2023/01/17 08:15:33;;;;;;;6.20;4.90;;;;;;;;;;5093267;28;20231;-85
2023/01/17 08:18:00;;;;;;;5.03;4.47;;;;;;;;;;5093911;28;20238;-85
2023/01/17 08:20:27;;;;;;;5.20;4.53;;;;;;;;;;5094133;28;20287;-85
2023/01/17 08:22:55;;;;;;;6.00;5.20;;;;;;;;;;5094287;28;20675;-84
2023/01/17 08:25:23;;;;;;;6.27;5.37;;;;;;;;;;5094316;28;20195;-85
2023/01/17 08:27:50;;;;;;;7.57;5.37;;;;;;;;;;5093560;28;20253;-84
2023/01/17 08:30:19;;;;;;;7.40;5.40;;;;;;;;;;5094849;28;20749;-85
2023/01/17 08:32:46;;;;;;;6.63;5.20;;;;;;;;;;5095494;28;20227;-85
2023/01/17 08:35:14;;;;;;;6.00;4.80;;;;;;;;;;5093778;28;20286;-84
2023/01/17 08:37:41;;;;;;;7.03;4.90;;;;;;;;;;5094043;28;20202;-84
2023/01/17 08:40:09;;;;;;;6.07;4.73;;;;;;;;;;5094129;28;20218;-84
2023/01/17 08:42:39;;;;;;;5.23;4.47;;;;;;;;;;5093229;28;20202;-84
2023/01/17 08:45:07;;;;;;;6.30;4.63;;;;;;;;;;5093426;28;20194;-85
2023/01/17 08:47:36;;;;;;;8.13;4.97;;;;;;;;;;5093659;28;20295;-85
2023/01/17 08:50:05;;;;;;;6.27;4.90;;;;;;;;;;5093560;28;20299;-84
2023/01/17 08:52:32;;;;;;;7.87;6.00;;;;;;;;;;5093524;28;20642;-83
2023/01/17 08:55:00;;;;;;;6.83;5.73;;;;;;;;;;5094468;28;20235;-85
2023/01/17 08:57:27;;;;;;;22.87;16.60;;;;;;;;;;5093976;28;20194;-83
2023/01/17 08:59:54;;;;;;;9.00;7.33;;;;;;;;;;5093829;28;20220;-85
2023/01/17 09:02:23;;;;;;;5.07;4.57;;;;;;;;;;5093598;28;20883;-84
2023/01/17 09:04:52;;;;;;;4.17;3.77;;;;;;;;;;5093893;28;20199;-82
2023/01/17 09:07:20;;;;;;;4.30;3.90;;;;;;;;;;5093508;28;20213;-86
2023/01/17 09:09:48;;;;;;;4.37;3.97;;;;;;;;;;5093546;28;20238;-84
2023/01/17 09:12:15;;;;;;;4.40;4.00;;;;;;;;;;5076797;28;20207;-85
2023/01/17 09:14:42;;;;;;;5.07;4.53;;;;;;;;;;5073746;28;20663;-86
2023/01/17 09:17:09;;;;;;;5.37;4.30;;;;;;;;;;5073809;28;20195;-84
2023/01/17 09:19:38;;;;;;;4.47;2.80;;;;;;;;;;5074358;28;20288;-84
2023/01/17 09:22:08;;;;;;;2.20;2.00;;;;;;;;;;5072917;28;20202;-85
2023/01/17 09:24:36;;;;;;;2.43;2.23;;;;;;;;;;5073078;28;20230;-84
2023/01/17 09:27:03;;;;;;;2.33;2.13;;;;;;;;;;5072440;28;20222;-84
2023/01/17 09:29:30;;;;;;;2.90;2.30;;;;;;;;;;5073493;28;20215;-84
2023/01/17 09:31:59;;;;;;;1.80;1.70;;;;;;;;;;5072930;28;20636;-84
2023/01/17 09:34:26;;;;;;;1.73;1.40;;;;;;;;;;5073285;28;20686;-85
2023/01/17 09:36:53;;;;;;;2.40;1.97;;;;;;;;;;5072979;28;20223;-86
2023/01/17 09:39:21;;;;;;;2.93;2.33;;;;;;;;;;5073115;28;20238;-86
2023/01/17 09:41:52;;;;;;;4.70;3.37;;;;;;;;;;5072639;28;20245;-83
2023/01/17 09:44:25;;;;;;;4.43;3.73;;;;;;;;;;5072558;28;20203;-84
2023/01/17 09:46:53;;;;;;;4.77;3.80;;;;;;;;;;5072552;28;20223;-83
2023/01/17 09:49:27;;;;;;;5.03;3.73;;;;;;;;;;5072467;28;20717;-86
2023/01/17 09:51:54;;;;;;;5.63;4.60;;;;;;;;;;5072593;28;20311;-87
2023/01/17 09:54:25;;;;;;;6.23;4.77;;;;;;;;;;5072508;28;20289;-86
2023/01/17 09:56:54;;;;;;;8.10;5.40;;;;;;;;;;5072567;28;20777;-86
2023/01/17 09:59:27;;;;;;;11.20;7.63;;;;;;;;;;5072592;28;20299;-87
2023/01/17 10:01:58;;;;;;;11.90;8.80;;;;;;;;;;5072814;28;20245;-87
2023/01/17 10:04:33;;;;;;;15.70;11.43;;;;;;;;;;5072944;28;20222;-85
2023/01/17 10:07:06;;;;;;;12.47;8.60;;;;;;;;;;5072398;28;20225;-85
2023/01/17 10:09:42;;;;;;;7.90;6.43;;;;;;;;;;5071784;28;20325;-85
2023/01/17 10:12:17;;;;;;;6.67;5.17;;;;;;;;;;5088250;28;20915;-86
2023/01/17 10:14:56;;;;;;;3.80;3.33;;;;;;;;;;5092799;28;20216;-86
2023/01/17 10:17:28;;;;;;;3.57;3.17;;;;;;;;;;5092170;28;20681;-85
2023/01/17 10:20:03;;;;;;;4.23;2.97;;;;;;;;;;5074612;28;20287;-84
2023/01/17 10:22:40;;;;;;;3.10;2.37;;;;;;;;;;5092616;28;20212;-84
2023/01/17 10:25:31;;;;;;;2.87;2.57;;;;;;;;;;5091888;28;20564;-84
2023/01/17 10:27:59;;;;;;;2.93;2.27;;;;;;;;;;5092248;28;20202;-85
2023/01/17 10:30:30;;;;;;;3.13;2.20;;;;;;;;;;5092313;28;20229;-85
2023/01/17 10:33:00;;;;;;;2.20;2.00;;;;;;;;;;5092412;28;20286;-84
2023/01/17 10:35:29;;;;;;;2.20;1.90;;;;;;;;;;5092419;28;20750;-85
2023/01/17 10:37:57;;;;;;;2.40;2.00;;;;;;;;;;5091067;28;20289;-84
2023/01/17 10:40:29;;;;;;;2.27;2.07;;;;;;;;;;5092110;28;20226;-85
2023/01/17 10:43:01;;;;;;;2.70;2.50;;;;;;;;;;5092756;28;20212;-85
2023/01/17 10:45:28;;;;;;;3.60;2.60;;;;;;;;;;5092453;28;20222;-84
2023/01/17 10:48:00;;;;;;;3.23;2.63;;;;;;;;;;5092137;28;20202;-84
2023/01/17 10:50:28;;;;;;;2.90;2.10;;;;;;;;;;5092040;28;20318;-84
2023/01/17 10:53:02;;;;;;;3.17;2.70;;;;;;;;;;5092130;28;20286;-84
2023/01/17 10:55:36;;;;;;;3.57;3.00;;;;;;;;;;5092427;28;20239;-85
2023/01/17 10:58:03;;;;;;;4.10;3.07;;;;;;;;;;5092053;28;20220;-84
2023/01/17 11:00:44;;;;;;;3.33;3.00;;;;;;;;;;5092271;28;20219;-84
2023/01/17 11:03:12;;;;;;;3.27;2.60;;;;;;;;;;5091887;28;20199;-84
2023/01/17 11:05:41;;;;;;;4.13;3.07;;;;;;;;;;5092151;28;20287;-84
2023/01/17 11:08:09;;;;;;;3.70;3.20;;;;;;;;;;5091074;28;20197;-83
2023/01/17 11:10:39;;;;;;;4.13;3.33;;;;;;;;;;5092164;28;20322;-84
2023/01/17 11:13:07;;;;;;;4.60;3.70;;;;;;;;;;5091718;28;20192;-84
2023/01/17 11:15:35;;;;;;;5.53;4.40;;;;;;;;;;5092181;28;20611;-85
2023/01/17 11:18:04;;;;;;;4.83;3.50;;;;;;;;;;5091828;28;20228;-85
2023/01/17 11:20:34;;;;;;;5.60;4.00;;;;;;;;;;5092284;28;20237;-84
2023/01/17 11:23:03;;;;;;;4.77;4.00;;;;;;;;;;5091188;28;20192;-84
2023/01/17 11:25:32;;;;;;;5.43;4.23;;;;;;;;;;5092016;28;20196;-84
2023/01/17 11:28:02;;;;;;;4.63;4.03;;;;;;;;;;5074279;28;20666;-84
2023/01/17 11:30:29;;;;;;;3.73;2.97;;;;;;;;;;5091657;28;20311;-84
2023/01/17 11:32:57;;;;;;;3.53;3.10;;;;;;;;;;5092264;28;20219;-83
2023/01/17 11:35:26;;;;;;;3.47;2.80;;;;;;;;;;5091840;28;20244;-84
2023/01/17 11:37:57;;;;;;;2.83;2.30;;;;;;;;;;5091622;28;20277;-84
2023/01/17 11:40:26;;;;;;;2.60;2.40;;;;;;;;;;5091711;28;20200;-84
2023/01/17 11:43:00;;;;;;;2.50;2.30;;;;;;;;;;5091710;28;20287;-84
2023/01/17 11:45:30;;;;;;;2.87;2.00;;;;;;;;;;5091719;28;20294;-84
2023/01/17 11:48:14;;;;;;;2.60;1.93;;;;;;;;;;5091579;28;20602;-85
2023/01/17 11:50:44;;;;;;;3.77;2.00;;;;;;;;;;5093345;28;20325;-83
2023/01/17 11:53:19;;;;;;;3.57;2.13;;;;;;;;;;5077343;28;20277;-84
2023/01/17 11:55:53;;;;;;;2.93;2.00;;;;;;;;;;5095407;28;20282;-85
2023/01/17 11:58:22;;;;;;;2.53;2.10;;;;;;;;;;5094901;28;20322;-84
2023/01/17 12:00:54;;;;;;;2.37;2.17;;;;;;;;;;5094970;28;20666;-86
2023/01/17 12:03:29;;;;;;;3.00;2.70;;;;;;;;;;5095291;28;20286;-85
2023/01/17 12:05:59;;;;;;;3.20;2.63;;;;;;;;;;5095044;28;20288;-87
2023/01/17 12:08:33;;;;;;;3.33;3.03;;;;;;;;;;5094829;28;20771;-84
2023/01/17 12:11:03;;;;;;;3.77;3.17;;;;;;;;;;5088775;28;20270;-86
2023/01/17 12:16:28;;;;;;;2.70;2.40;;;;;;;;;;5074477;28;20210;-86
2023/01/17 12:18:59;;;;;;;4.93;2.90;;;;;;;;;;5074327;28;20195;-87
2023/01/17 12:21:33;;;;;;;2.57;2.30;;;;;;;;;;5074079;28;20282;-87
2023/01/17 12:24:16;;;;;;;3.27;2.60;;;;;;;;;;5074460;28;20244;-87
2023/01/17 12:26:50;;;;;;;2.53;2.30;;;;;;;;;;5074103;28;20293;-87
2023/01/17 12:29:36;;;;;;;3.97;2.40;;;;;;;;;;5074447;28;20215;-85
2023/01/17 12:32:13;;;;;;;3.93;3.23;;;;;;;;;;5074359;28;20753;-86
2023/01/17 12:34:43;;;;;;;3.87;2.93;;;;;;;;;;5074053;28;20597;-85
2023/01/17 12:37:16;;;;;;;2.97;2.63;;;;;;;;;;5074346;28;20291;-86
2023/01/17 12:39:46;;;;;;;3.17;2.80;;;;;;;;;;5074009;28;20245;-86
2023/01/17 12:42:17;;;;;;;5.40;2.50;;;;;;;;;;5074189;28;20639;-85
2023/01/17 12:44:50;;;;;;;3.90;2.77;;;;;;;;;;5074514;28;20195;-86
2023/01/17 12:47:20;;;;;;;4.17;3.30;;;;;;;;;;5074067;28;20202;-86
2023/01/17 12:49:49;;;;;;;3.23;2.93;;;;;;;;;;5073564;28;20282;-86
2023/01/17 12:52:22;;;;;;;3.27;2.83;;;;;;;;;;5073979;28;20249;-87
2023/01/17 12:54:51;;;;;;;3.53;2.47;;;;;;;;;;5073562;28;20242;-85
2023/01/17 12:57:21;;;;;;;2.57;1.90;;;;;;;;;;5073394;28;20207;-86
2023/01/17 12:59:51;;;;;;;3.33;1.80;;;;;;;;;;5073902;28;20286;-87
2023/01/17 13:02:26;;;;;;;3.43;2.33;;;;;;;;;;5072739;28;20234;-87
2023/01/17 13:04:57;;;;;;;3.53;2.60;;;;;;;;;;5073089;28;20224;-86
2023/01/17 13:07:29;;;;;;;3.40;3.07;;;;;;;;;;5073353;28;20195;-87
2023/01/17 13:10:01;;;;;;;2.93;2.53;;;;;;;;;;5073573;28;20332;-86
2023/01/17 13:12:30;;;;;;;2.63;2.17;;;;;;;;;;5091928;28;20282;-85
2023/01/17 13:14:57;;;;;;;4.07;2.50;;;;;;;;;;5093579;28;20290;-87
2023/01/17 13:17:31;;;;;;;3.43;1.97;;;;;;;;;;5093370;28;20225;-86
2023/01/17 13:20:00;;;;;;;3.67;2.43;;;;;;;;;;5093765;28;20772;-86
2023/01/17 13:22:28;;;;;;;4.53;2.17;;;;;;;;;;5093486;28;20198;-86
2023/01/17 13:24:59;;;;;;;3.53;2.30;;;;;;;;;;5093273;28;20289;-86
2023/01/17 13:27:42;;;;;;;3.40;2.70;;;;;;;;;;5093360;28;20194;-86
2023/01/17 13:30:21;;;;;;;3.33;2.60;;;;;;;;;;5093483;28;20198;-86
2023/01/17 13:33:01;;;;;;;4.67;3.23;;;;;;;;;;5092944;28;20244;-86
2023/01/17 13:35:35;;;;;;;4.27;2.70;;;;;;;;;;5093887;28;20194;-86
2023/01/17 13:38:18;;;;;;;4.30;2.57;;;;;;;;;;5093430;28;20198;-86
2023/01/17 13:40:50;;;;;;;3.17;2.23;;;;;;;;;;5090694;28;20293;-86
2023/01/17 13:43:20;;;;;;;4.10;2.50;;;;;;;;;;5093493;28;20259;-86
2023/01/17 13:45:52;;;;;;;5.80;2.80;;;;;;;;;;5093581;28;20854;-86
2023/01/17 13:48:36;;;;;;;4.70;2.80;;;;;;;;;;5092520;28;20194;-86
2023/01/17 13:51:03;;;;;;;5.13;2.70;;;;;;;;;;5093254;28;20647;-87
2023/01/17 13:53:55;;;;;;;4.63;2.50;;;;;;;;;;5093125;28;20218;-86
2023/01/17 13:56:33;;;;;;;3.60;2.40;;;;;;;;;;5093090;28;20198;-86
2023/01/17 13:59:02;;;;;;;4.73;3.33;;;;;;;;;;5093270;28;20202;-87
2023/01/17 14:01:49;;;;;;;3.67;2.70;;;;;;;;;;5093043;28;20200;-86
2023/01/17 14:04:18;;;;;;;3.80;2.80;;;;;;;;;;5092919;28;20284;-87
2023/01/17 14:06:47;;;;;;;3.23;2.50;;;;;;;;;;5093281;28;20194;-86
2023/01/17 14:09:21;;;;;;;3.77;1.90;;;;;;;;;;5092650;28;20291;-86
2023/01/17 14:11:53;;;;;;;4.20;2.73;;;;;;;;;;5080158;28;20766;-86
2023/01/17 14:14:41;;;;;;;3.10;2.57;;;;;;;;;;5054405;28;20284;-85
2023/01/17 14:17:24;;;;;;;5.63;3.20;;;;;;;;;;5067406;28;20209;-86
2023/01/17 14:19:54;;;;;;;4.63;2.77;;;;;;;;;;5072558;28;20197;-86
2023/01/17 14:22:23;;;;;;;5.20;3.00;;;;;;;;;;5072431;28;20340;-86
2023/01/17 14:24:58;;;;;;;5.43;2.57;;;;;;;;;;5072190;28;20293;-86
2023/01/17 14:27:26;;;;;;;5.40;2.10;;;;;;;;;;5072517;28;20288;-87
2023/01/17 14:29:57;;;;;;;4.77;2.17;;;;;;;;;;5072335;28;20229;-85
2023/01/17 14:32:25;;;;;;;3.50;2.40;;;;;;;;;;5072324;28;20264;-86
2023/01/17 14:34:56;;;;;;;4.23;2.80;;;;;;;;;;5072734;28;20625;-86
2023/01/17 14:37:38;;;;;;;5.97;2.47;;;;;;;;;;5072538;28;20248;-87
2023/01/17 14:40:14;;;;;;;6.13;3.00;;;;;;;;;;5070355;28;20196;-87
2023/01/17 14:42:43;;;;;;;6.73;2.70;;;;;;;;;;5072250;28;20226;-86
2023/01/17 14:45:14;;;;;;;6.40;2.47;;;;;;;;;;5072004;28;20579;-87
2023/01/17 14:47:44;;;;;;;6.00;2.40;;;;;;;;;;5072339;28;20237;-86
2023/01/17 14:50:24;;;;;;;3.73;2.10;;;;;;;;;;5071819;28;20291;-86
2023/01/17 14:53:08;;;;;;;4.63;2.50;;;;;;;;;;5072670;28;20235;-85
2023/01/17 14:55:35;;;;;;;4.80;2.73;;;;;;;;;;5071927;28;20196;-87
2023/01/17 14:58:02;;;;;;;4.43;2.40;;;;;;;;;;5072021;28;20231;-86
2023/01/17 15:00:29;;;;;;;4.47;2.50;;;;;;;;;;5071783;28;20205;-86
2023/01/17 15:02:58;;;;;;;5.50;2.53;;;;;;;;;;5072068;28;20232;-86
2023/01/17 15:05:27;;;;;;;4.50;2.30;;;;;;;;;;5072329;28;20202;-86
2023/01/17 15:07:55;;;;;;;5.63;2.60;;;;;;;;;;5072096;28;20234;-86
2023/01/17 15:10:24;;;;;;;4.50;2.70;;;;;;;;;;5072376;28;20329;-86
2023/01/17 15:12:51;;;;;;;7.00;3.03;;;;;;;;;;5092402;28;20281;-86
2023/01/17 15:15:30;;;;;;;4.47;2.63;;;;;;;;;;5092695;28;20237;-86
2023/01/17 15:18:17;;;;;;;4.60;2.97;;;;;;;;;;5092285;28;20659;-86
2023/01/17 15:20:49;;;;;;;4.67;3.50;;;;;;;;;;5073931;28;20199;-86
2023/01/17 15:23:19;;;;;;;8.50;3.50;;;;;;;;;;5092076;28;20229;-87
2023/01/17 15:25:47;;;;;;;8.33;4.30;;;;;;;;;;5094745;28;20278;-87
2023/01/17 15:28:15;;;;;;;11.03;5.37;;;;;;;;;;5095311;28;20232;-86
2023/01/17 15:30:58;;;;;;;12.27;4.87;;;;;;;;;;5096124;28;20228;-86
2023/01/17 15:33:25;;;;;;;18.53;5.63;;;;;;;;;;5095638;28;20226;-86
2023/01/17 15:36:00;;;;;;;13.20;5.73;;;;;;;;;;5096202;28;20219;-86
2023/01/17 15:38:27;;;;;;;14.17;5.77;;;;;;;;;;5095742;28;20295;-86
2023/01/17 15:40:54;;;;;;;14.03;6.30;;;;;;;;;;5096171;28;20239;-86
2023/01/17 15:43:24;;;;;;;14.90;7.33;;;;;;;;;;5095331;28;20808;-86
2023/01/17 15:45:55;;;;;;;21.27;7.83;;;;;;;;;;5095299;28;20220;-87
2023/01/17 15:48:39;;;;;;;19.53;8.80;;;;;;;;;;5095451;28;20202;-86
2023/01/17 15:51:08;;;;;;;15.80;9.23;;;;;;;;;;5096227;28;20222;-87
2023/01/17 15:53:36;;;;;;;26.07;15.17;;;;;;;;;;5095866;28;20287;-86
2023/01/17 15:56:18;;;;;;;23.57;12.63;;;;;;;;;;5077646;28;20215;-86
2023/01/17 15:58:49;;;;;;;18.93;10.47;;;;;;;;;;5075150;28;20227;-86
2023/01/17 16:01:17;;;;;;;13.77;9.53;;;;;;;;;;5074900;28;20667;-87
2023/01/17 16:03:52;;;;;;;18.07;10.10;;;;;;;;;;5075401;28;20206;-86
2023/01/17 16:06:37;;;;;;;12.27;9.33;;;;;;;;;;5075514;28;20208;-86
2023/01/17 16:09:04;;;;;;;15.13;10.33;;;;;;;;;;5074643;28;20297;-87
2023/01/17 16:11:31;;;;;;;16.60;11.70;;;;;;;;;;5084893;28;20228;-87
2023/01/17 16:13:59;;;;;;;15.97;12.63;;;;;;;;;;5095370;28;20200;-86
2023/01/17 16:16:26;;;;;;;17.53;12.57;;;;;;;;;;5094764;28;20199;-86
2023/01/17 16:18:58;;;;;;;12.93;8.30;;;;;;;;;;5094889;28;20650;-87
2023/01/17 16:21:26;;;;;;;9.67;6.23;;;;;;;;;;5095320;28;20223;-87